Cynthiana, Ohio
Current Conditions -  °F | °C
As of 7:54 AM on Wednesday 26 Nov 2014 (Local Time) from KRZT Reporting Station
Broken Clouds Broken Clouds  
Wind Chill: 21°   Ceiling: 3000
Heat Index: 28°   Visibility: 7mi
Dew Point: 27°   Wind: 7mph
Humidity: 93%   Direction: 340°NNW
Pressure: 30.11"   Gusts: NA
Location:  39.17°N, 83.35°W
Report Text: KRZT 261254Z AUTO 34006KT 7SM BKN030 BKN120 M02/M03 A3011 RMK AO2
Loading
Personal Weather Stations






























Interactive Weather Map New forecast layout! Learn more

10-Day Weather Forecast

Advertisements
Track Severe Weather on mobile